sensor_id;sensor_type;location;lat;lon;timestamp;pressure;altitude;pressure_sealevel;temperature
12007;BMP180;6062;47.294;12.182;2023-02-11T00:00:22;81437.00;;;-0.60
12007;BMP180;6062;47.294;12.182;2023-02-11T00:02:48;81453.00;;;-0.60
12007;BMP180;6062;47.294;12.182;2023-02-11T00:05:14;81445.00;;;-0.60
12007;BMP180;6062;47.294;12.182;2023-02-11T00:07:39;81443.00;;;-0.60
12007;BMP180;6062;47.294;12.182;2023-02-11T00:10:06;81444.00;;;-0.60
12007;BMP180;6062;47.294;12.182;2023-02-11T00:12:34;81442.00;;;-0.60
12007;BMP180;6062;47.294;12.182;2023-02-11T00:15:00;81446.00;;;-0.50
12007;BMP180;6062;47.294;12.182;2023-02-11T00:17:26;81442.00;;;-0.50
12007;BMP180;6062;47.294;12.182;2023-02-11T00:19:52;81445.00;;;-0.40
12007;BMP180;6062;47.294;12.182;2023-02-11T00:22:18;81444.00;;;-0.40
12007;BMP180;6062;47.294;12.182;2023-02-11T00:24:44;81442.00;;;-0.40
12007;BMP180;6062;47.294;12.182;2023-02-11T00:27:10;81439.00;;;-0.30
12007;BMP180;6062;47.294;12.182;2023-02-11T00:29:37;81442.00;;;-0.30
12007;BMP180;6062;47.294;12.182;2023-02-11T00:32:04;81433.00;;;-0.20
12007;BMP180;6062;47.294;12.182;2023-02-11T00:34:35;81434.00;;;-0.20
12007;BMP180;6062;47.294;12.182;2023-02-11T00:37:01;81433.00;;;-0.10
12007;BMP180;6062;47.294;12.182;2023-02-11T00:39:27;81441.00;;;0.00
12007;BMP180;6062;47.294;12.182;2023-02-11T00:41:53;81435.00;;;0.10
12007;BMP180;6062;47.294;12.182;2023-02-11T00:44:19;81432.00;;;0.20
12007;BMP180;6062;47.294;12.182;2023-02-11T00:46:44;81439.00;;;0.20
12007;BMP180;6062;47.294;12.182;2023-02-11T00:49:10;81442.00;;;0.30
12007;BMP180;6062;47.294;12.182;2023-02-11T00:51:36;81439.00;;;0.30
12007;BMP180;6062;47.294;12.182;2023-02-11T00:54:02;81441.00;;;0.30
12007;BMP180;6062;47.294;12.182;2023-02-11T00:56:28;81444.00;;;0.40
12007;BMP180;6062;47.294;12.182;2023-02-11T00:58:54;81443.00;;;0.40
12007;BMP180;6062;47.294;12.182;2023-02-11T01:01:19;81442.00;;;0.40
12007;BMP180;6062;47.294;12.182;2023-02-11T01:03:46;81442.00;;;0.50
12007;BMP180;6062;47.294;12.182;2023-02-11T01:06:12;81441.00;;;0.50
12007;BMP180;6062;47.294;12.182;2023-02-11T01:08:38;81434.00;;;0.50
12007;BMP180;6062;47.294;12.182;2023-02-11T01:11:11;81435.00;;;0.50
12007;BMP180;6062;47.294;12.182;2023-02-11T01:13:37;81436.00;;;0.50
12007;BMP180;6062;47.294;12.182;2023-02-11T01:16:06;81430.00;;;0.50
12007;BMP180;6062;47.294;12.182;2023-02-11T01:18:32;81428.00;;;0.50
12007;BMP180;6062;47.294;12.182;2023-02-11T01:20:58;81435.00;;;0.50
12007;BMP180;6062;47.294;12.182;2023-02-11T01:23:24;81418.00;;;0.60
12007;BMP180;6062;47.294;12.182;2023-02-11T01:25:51;81420.00;;;0.60
12007;BMP180;6062;47.294;12.182;2023-02-11T01:28:23;81415.00;;;0.50
12007;BMP180;6062;47.294;12.182;2023-02-11T01:30:49;81403.00;;;0.60
12007;BMP180;6062;47.294;12.182;2023-02-11T01:33:16;81414.00;;;0.60
12007;BMP180;6062;47.294;12.182;2023-02-11T01:35:43;81407.00;;;0.60
12007;BMP180;6062;47.294;12.182;2023-02-11T01:38:19;81413.00;;;0.60
12007;BMP180;6062;47.294;12.182;2023-02-11T01:40:59;81408.00;;;0.60
12007;BMP180;6062;47.294;12.182;2023-02-11T01:43:30;81413.00;;;0.60
12007;BMP180;6062;47.294;12.182;2023-02-11T01:46:32;81411.00;;;0.60
12007;BMP180;6062;47.294;12.182;2023-02-11T01:49:14;81405.00;;;0.50
12007;BMP180;6062;47.294;12.182;2023-02-11T01:52:09;81408.00;;;0.50
12007;BMP180;6062;47.294;12.182;2023-02-11T01:55:03;81412.00;;;0.50
12007;BMP180;6062;47.294;12.182;2023-02-11T01:57:53;81396.00;;;0.40
12007;BMP180;6062;47.294;12.182;2023-02-11T02:00:33;81393.00;;;0.50
12007;BMP180;6062;47.294;12.182;2023-02-11T02:03:14;81400.00;;;0.50
12007;BMP180;6062;47.294;12.182;2023-02-11T02:08:39;81393.00;;;0.50
12007;BMP180;6062;47.294;12.182;2023-02-11T02:11:06;81394.00;;;0.50
12007;BMP180;6062;47.294;12.182;2023-02-11T02:13:34;81395.00;;;0.50
12007;BMP180;6062;47.294;12.182;2023-02-11T02:16:04;81395.00;;;0.50
12007;BMP180;6062;47.294;12.182;2023-02-11T02:18:59;81395.00;;;0.50
12007;BMP180;6062;47.294;12.182;2023-02-11T02:21:54;81375.00;;;0.50
12007;BMP180;6062;47.294;12.182;2023-02-11T02:27:36;81387.00;;;0.50
12007;BMP180;6062;47.294;12.182;2023-02-11T02:36:50;81383.00;;;0.40
12007;BMP180;6062;47.294;12.182;2023-02-11T02:39:26;81377.00;;;0.40
12007;BMP180;6062;47.294;12.182;2023-02-11T02:41:53;81383.00;;;0.30
12007;BMP180;6062;47.294;12.182;2023-02-11T02:44:20;81376.00;;;0.30
12007;BMP180;6062;47.294;12.182;2023-02-11T02:46:46;81375.00;;;0.30
12007;BMP180;6062;47.294;12.182;2023-02-11T02:49:13;81375.00;;;0.20
12007;BMP180;6062;47.294;12.182;2023-02-11T02:55:21;81371.00;;;0.10
12007;BMP180;6062;47.294;12.182;2023-02-11T03:00:59;81373.00;;;0.00
12007;BMP180;6062;47.294;12.182;2023-02-11T03:04:10;81373.00;;;-0.10
12007;BMP180;6062;47.294;12.182;2023-02-11T03:09:38;81375.00;;;-0.20
12007;BMP180;6062;47.294;12.182;2023-02-11T03:12:06;81362.00;;;-0.20
12007;BMP180;6062;47.294;12.182;2023-02-11T03:14:34;81374.00;;;-0.20
12007;BMP180;6062;47.294;12.182;2023-02-11T03:17:04;81359.00;;;-0.20
12007;BMP180;6062;47.294;12.182;2023-02-11T03:19:40;81372.00;;;-0.30
12007;BMP180;6062;47.294;12.182;2023-02-11T03:22:16;81372.00;;;-0.30
12007;BMP180;6062;47.294;12.182;2023-02-11T03:24:44;81375.00;;;-0.30
12007;BMP180;6062;47.294;12.182;2023-02-11T03:27:45;81368.00;;;-0.40
12007;BMP180;6062;47.294;12.182;2023-02-11T03:30:33;81360.00;;;-0.40
12007;BMP180;6062;47.294;12.182;2023-02-11T03:33:13;81368.00;;;-0.50
12007;BMP180;6062;47.294;12.182;2023-02-11T03:36:26;81352.00;;;-0.40
12007;BMP180;6062;47.294;12.182;2023-02-11T03:38:48;81357.00;;;-0.40
12007;BMP180;6062;47.294;12.182;2023-02-11T03:41:20;81367.00;;;-0.40
12007;BMP180;6062;47.294;12.182;2023-02-11T03:43:57;81355.00;;;-0.40
12007;BMP180;6062;47.294;12.182;2023-02-11T03:46:33;81358.00;;;-0.40
12007;BMP180;6062;47.294;12.182;2023-02-11T03:49:12;81355.00;;;-0.40
12007;BMP180;6062;47.294;12.182;2023-02-11T03:51:39;81355.00;;;-0.30
12007;BMP180;6062;47.294;12.182;2023-02-11T03:54:14;81351.00;;;-0.30
12007;BMP180;6062;47.294;12.182;2023-02-11T03:56:52;81352.00;;;-0.30
12007;BMP180;6062;47.294;12.182;2023-02-11T03:59:18;81351.00;;;-0.30
12007;BMP180;6062;47.294;12.182;2023-02-11T04:01:44;81344.00;;;-0.30
12007;BMP180;6062;47.294;12.182;2023-02-11T04:04:10;81349.00;;;-0.20
12007;BMP180;6062;47.294;12.182;2023-02-11T04:06:36;81346.00;;;-0.20
12007;BMP180;6062;47.294;12.182;2023-02-11T04:09:02;81357.00;;;-0.10
12007;BMP180;6062;47.294;12.182;2023-02-11T04:11:28;81357.00;;;-0.10
12007;BMP180;6062;47.294;12.182;2023-02-11T04:13:53;81349.00;;;0.00
12007;BMP180;6062;47.294;12.182;2023-02-11T04:16:19;81352.00;;;0.00
12007;BMP180;6062;47.294;12.182;2023-02-11T04:18:45;81357.00;;;0.00
12007;BMP180;6062;47.294;12.182;2023-02-11T04:21:10;81351.00;;;0.10
12007;BMP180;6062;47.294;12.182;2023-02-11T04:23:36;81344.00;;;0.10
12007;BMP180;6062;47.294;12.182;2023-02-11T04:26:02;81359.00;;;0.10
12007;BMP180;6062;47.294;12.182;2023-02-11T04:28:28;81359.00;;;0.00
12007;BMP180;6062;47.294;12.182;2023-02-11T04:30:55;81362.00;;;0.00
12007;BMP180;6062;47.294;12.182;2023-02-11T04:33:21;81363.00;;;0.00
12007;BMP180;6062;47.294;12.182;2023-02-11T04:35:47;81354.00;;;0.00
12007;BMP180;6062;47.294;12.182;2023-02-11T04:38:13;81363.00;;;0.00
12007;BMP180;6062;47.294;12.182;2023-02-11T04:40:39;81350.00;;;0.00
12007;BMP180;6062;47.294;12.182;2023-02-11T04:43:05;81358.00;;;0.00
12007;BMP180;6062;47.294;12.182;2023-02-11T04:45:32;81346.00;;;0.00
12007;BMP180;6062;47.294;12.182;2023-02-11T04:47:58;81349.00;;;0.00
12007;BMP180;6062;47.294;12.182;2023-02-11T04:50:24;81348.00;;;-0.10
12007;BMP180;6062;47.294;12.182;2023-02-11T04:52:49;81343.00;;;-0.10
12007;BMP180;6062;47.294;12.182;2023-02-11T04:55:15;81349.00;;;-0.10
12007;BMP180;6062;47.294;12.182;2023-02-11T04:57:41;81348.00;;;-0.10
12007;BMP180;6062;47.294;12.182;2023-02-11T05:00:08;81356.00;;;-0.10
12007;BMP180;6062;47.294;12.182;2023-02-11T05:02:34;81362.00;;;-0.10
12007;BMP180;6062;47.294;12.182;2023-02-11T05:05:00;81363.00;;;-0.10
12007;BMP180;6062;47.294;12.182;2023-02-11T05:07:26;81353.00;;;-0.10
12007;BMP180;6062;47.294;12.182;2023-02-11T05:09:52;81355.00;;;-0.10
12007;BMP180;6062;47.294;12.182;2023-02-11T05:12:18;81356.00;;;-0.10
12007;BMP180;6062;47.294;12.182;2023-02-11T05:14:43;81361.00;;;-0.10
12007;BMP180;6062;47.294;12.182;2023-02-11T05:17:09;81361.00;;;-0.10
12007;BMP180;6062;47.294;12.182;2023-02-11T05:19:35;81363.00;;;-0.20
12007;BMP180;6062;47.294;12.182;2023-02-11T05:22:00;81377.00;;;-0.20
12007;BMP180;6062;47.294;12.182;2023-02-11T05:24:26;81371.00;;;-0.20
12007;BMP180;6062;47.294;12.182;2023-02-11T05:26:52;81374.00;;;-0.20
12007;BMP180;6062;47.294;12.182;2023-02-11T05:29:17;81370.00;;;-0.20
12007;BMP180;6062;47.294;12.182;2023-02-11T05:31:44;81377.00;;;-0.20
12007;BMP180;6062;47.294;12.182;2023-02-11T05:34:10;81373.00;;;-0.20
12007;BMP180;6062;47.294;12.182;2023-02-11T05:36:36;81371.00;;;-0.30
12007;BMP180;6062;47.294;12.182;2023-02-11T05:39:01;81377.00;;;-0.30
12007;BMP180;6062;47.294;12.182;2023-02-11T05:41:27;81378.00;;;-0.30
12007;BMP180;6062;47.294;12.182;2023-02-11T05:43:53;81375.00;;;-0.30
12007;BMP180;6062;47.294;12.182;2023-02-11T05:46:18;81375.00;;;-0.30
12007;BMP180;6062;47.294;12.182;2023-02-11T05:48:44;81383.00;;;-0.30
12007;BMP180;6062;47.294;12.182;2023-02-11T05:51:10;81379.00;;;-0.30
12007;BMP180;6062;47.294;12.182;2023-02-11T05:53:36;81380.00;;;-0.30
12007;BMP180;6062;47.294;12.182;2023-02-11T05:56:01;81375.00;;;-0.30
12007;BMP180;6062;47.294;12.182;2023-02-11T05:58:27;81385.00;;;-0.20
12007;BMP180;6062;47.294;12.182;2023-02-11T06:00:53;81379.00;;;-0.20
12007;BMP180;6062;47.294;12.182;2023-02-11T06:03:19;81370.00;;;-0.20
12007;BMP180;6062;47.294;12.182;2023-02-11T06:05:45;81382.00;;;-0.10
12007;BMP180;6062;47.294;12.182;2023-02-11T06:08:11;81382.00;;;-0.10
12007;BMP180;6062;47.294;12.182;2023-02-11T06:10:37;81378.00;;;-0.10
12007;BMP180;6062;47.294;12.182;2023-02-11T06:13:03;81370.00;;;0.00
12007;BMP180;6062;47.294;12.182;2023-02-11T06:15:29;81377.00;;;0.00
12007;BMP180;6062;47.294;12.182;2023-02-11T06:17:55;81378.00;;;0.00
12007;BMP180;6062;47.294;12.182;2023-02-11T06:20:21;81370.00;;;0.00
12007;BMP180;6062;47.294;12.182;2023-02-11T06:22:46;81366.00;;;0.10
12007;BMP180;6062;47.294;12.182;2023-02-11T06:25:13;81375.00;;;0.20
12007;BMP180;6062;47.294;12.182;2023-02-11T06:27:39;81379.00;;;0.20
12007;BMP180;6062;47.294;12.182;2023-02-11T06:30:07;81384.00;;;0.30
12007;BMP180;6062;47.294;12.182;2023-02-11T06:32:33;81385.00;;;0.30
12007;BMP180;6062;47.294;12.182;2023-02-11T06:34:59;81378.00;;;0.40
12007;BMP180;6062;47.294;12.182;2023-02-11T06:37:25;81391.00;;;0.50
12007;BMP180;6062;47.294;12.182;2023-02-11T06:39:50;81388.00;;;0.60
12007;BMP180;6062;47.294;12.182;2023-02-11T06:42:16;81385.00;;;0.70
12007;BMP180;6062;47.294;12.182;2023-02-11T06:44:42;81391.00;;;0.80
12007;BMP180;6062;47.294;12.182;2023-02-11T06:47:09;81395.00;;;0.90
12007;BMP180;6062;47.294;12.182;2023-02-11T06:49:34;81398.00;;;1.00
12007;BMP180;6062;47.294;12.182;2023-02-11T06:52:00;81400.00;;;1.10
12007;BMP180;6062;47.294;12.182;2023-02-11T06:54:25;81396.00;;;1.10
12007;BMP180;6062;47.294;12.182;2023-02-11T06:56:51;81395.00;;;1.20
12007;BMP180;6062;47.294;12.182;2023-02-11T06:59:19;81399.00;;;1.30
12007;BMP180;6062;47.294;12.182;2023-02-11T07:01:46;81401.00;;;1.40
12007;BMP180;6062;47.294;12.182;2023-02-11T07:04:12;81405.00;;;1.50
12007;BMP180;6062;47.294;12.182;2023-02-11T07:06:39;81403.00;;;1.60
12007;BMP180;6062;47.294;12.182;2023-02-11T07:09:06;81395.00;;;1.60
12007;BMP180;6062;47.294;12.182;2023-02-11T07:11:33;81409.00;;;1.70
12007;BMP180;6062;47.294;12.182;2023-02-11T07:14:05;81398.00;;;1.80
12007;BMP180;6062;47.294;12.182;2023-02-11T07:16:35;81387.00;;;1.90
12007;BMP180;6062;47.294;12.182;2023-02-11T07:19:01;81385.00;;;2.00
12007;BMP180;6062;47.294;12.182;2023-02-11T07:21:27;81397.00;;;2.10
12007;BMP180;6062;47.294;12.182;2023-02-11T07:23:53;81392.00;;;2.20
12007;BMP180;6062;47.294;12.182;2023-02-11T07:26:21;81398.00;;;2.30
12007;BMP180;6062;47.294;12.182;2023-02-11T07:28:48;81391.00;;;2.50
12007;BMP180;6062;47.294;12.182;2023-02-11T07:31:22;81404.00;;;2.70
12007;BMP180;6062;47.294;12.182;2023-02-11T07:33:50;81399.00;;;2.90
12007;BMP180;6062;47.294;12.182;2023-02-11T07:36:16;81403.00;;;3.10
12007;BMP180;6062;47.294;12.182;2023-02-11T07:38:42;81400.00;;;3.40
12007;BMP180;6062;47.294;12.182;2023-02-11T07:41:12;81397.00;;;3.90
12007;BMP180;6062;47.294;12.182;2023-02-11T07:43:39;81389.00;;;4.30
12007;BMP180;6062;47.294;12.182;2023-02-11T07:46:39;81404.00;;;4.70
12007;BMP180;6062;47.294;12.182;2023-02-11T07:49:09;81409.00;;;5.00
12007;BMP180;6062;47.294;12.182;2023-02-11T07:51:35;81411.00;;;5.20
12007;BMP180;6062;47.294;12.182;2023-02-11T07:54:00;81409.00;;;5.30
12007;BMP180;6062;47.294;12.182;2023-02-11T07:56:27;81393.00;;;5.40
12007;BMP180;6062;47.294;12.182;2023-02-11T07:58:58;81398.00;;;5.40
12007;BMP180;6062;47.294;12.182;2023-02-11T08:01:25;81392.00;;;5.40
12007;BMP180;6062;47.294;12.182;2023-02-11T08:03:54;81398.00;;;5.40
12007;BMP180;6062;47.294;12.182;2023-02-11T08:06:23;81381.00;;;5.40
12007;BMP180;6062;47.294;12.182;2023-02-11T08:08:49;81400.00;;;5.50
12007;BMP180;6062;47.294;12.182;2023-02-11T08:11:23;81405.00;;;5.50
12007;BMP180;6062;47.294;12.182;2023-02-11T08:13:50;81400.00;;;5.60
12007;BMP180;6062;47.294;12.182;2023-02-11T08:16:31;81402.00;;;5.60
12007;BMP180;6062;47.294;12.182;2023-02-11T08:19:01;81406.00;;;5.70
12007;BMP180;6062;47.294;12.182;2023-02-11T08:21:28;81404.00;;;5.90
12007;BMP180;6062;47.294;12.182;2023-02-11T08:23:54;81424.00;;;6.00
12007;BMP180;6062;47.294;12.182;2023-02-11T08:26:27;81417.00;;;6.20
12007;BMP180;6062;47.294;12.182;2023-02-11T08:28:55;81422.00;;;6.40
12007;BMP180;6062;47.294;12.182;2023-02-11T08:31:29;81419.00;;;6.60
12007;BMP180;6062;47.294;12.182;2023-02-11T08:33:55;81412.00;;;6.70
12007;BMP180;6062;47.294;12.182;2023-02-11T08:36:27;81413.00;;;6.80
12007;BMP180;6062;47.294;12.182;2023-02-11T08:38:55;81409.00;;;6.90
12007;BMP180;6062;47.294;12.182;2023-02-11T08:41:21;81413.00;;;7.00
12007;BMP180;6062;47.294;12.182;2023-02-11T08:43:47;81418.00;;;7.00
12007;BMP180;6062;47.294;12.182;2023-02-11T08:46:17;81418.00;;;7.00
12007;BMP180;6062;47.294;12.182;2023-02-11T08:48:45;81419.00;;;7.00
12007;BMP180;6062;47.294;12.182;2023-02-11T08:51:16;81420.00;;;6.90
12007;BMP180;6062;47.294;12.182;2023-02-11T08:53:42;81421.00;;;6.90
12007;BMP180;6062;47.294;12.182;2023-02-11T08:56:10;81424.00;;;6.90
12007;BMP180;6062;47.294;12.182;2023-02-11T08:58:37;81433.00;;;6.90
12007;BMP180;6062;47.294;12.182;2023-02-11T09:01:18;81433.00;;;6.90
12007;BMP180;6062;47.294;12.182;2023-02-11T09:03:44;81442.00;;;6.90
12007;BMP180;6062;47.294;12.182;2023-02-11T09:06:12;81445.00;;;6.90
12007;BMP180;6062;47.294;12.182;2023-02-11T09:08:41;81435.00;;;7.00
12007;BMP180;6062;47.294;12.182;2023-02-11T09:11:09;81437.00;;;7.00
12007;BMP180;6062;47.294;12.182;2023-02-11T09:13:35;81441.00;;;7.00
12007;BMP180;6062;47.294;12.182;2023-02-11T09:16:03;81448.00;;;7.00
12007;BMP180;6062;47.294;12.182;2023-02-11T09:18:30;81442.00;;;7.00
12007;BMP180;6062;47.294;12.182;2023-02-11T09:21:05;81433.00;;;7.00
12007;BMP180;6062;47.294;12.182;2023-02-11T09:23:32;81441.00;;;7.00
12007;BMP180;6062;47.294;12.182;2023-02-11T09:26:23;81443.00;;;7.10
12007;BMP180;6062;47.294;12.182;2023-02-11T09:28:49;81442.00;;;7.10
12007;BMP180;6062;47.294;12.182;2023-02-11T09:31:19;81443.00;;;7.20
12007;BMP180;6062;47.294;12.182;2023-02-11T09:33:50;81435.00;;;7.30
12007;BMP180;6062;47.294;12.182;2023-02-11T09:36:19;81436.00;;;7.40
12007;BMP180;6062;47.294;12.182;2023-02-11T09:38:47;81437.00;;;7.50
12007;BMP180;6062;47.294;12.182;2023-02-11T09:41:58;81431.00;;;7.70
12007;BMP180;6062;47.294;12.182;2023-02-11T09:44:32;81431.00;;;7.80
12007;BMP180;6062;47.294;12.182;2023-02-11T09:47:32;81429.00;;;8.00
12007;BMP180;6062;47.294;12.182;2023-02-11T09:50:12;81424.00;;;8.20
12007;BMP180;6062;47.294;12.182;2023-02-11T09:53:02;81427.00;;;8.40
12007;BMP180;6062;47.294;12.182;2023-02-11T09:55:42;81432.00;;;8.60
12007;BMP180;6062;47.294;12.182;2023-02-11T09:58:34;81426.00;;;8.80
12007;BMP180;6062;47.294;12.182;2023-02-11T10:04:56;81427.00;;;9.40
12007;BMP180;6062;47.294;12.182;2023-02-11T10:08:07;81432.00;;;9.70
12007;BMP180;6062;47.294;12.182;2023-02-11T10:13:41;81430.00;;;10.30
12007;BMP180;6062;47.294;12.182;2023-02-11T10:22:41;81445.00;;;11.40
12007;BMP180;6062;47.294;12.182;2023-02-11T10:25:40;81444.00;;;11.70
12007;BMP180;6062;47.294;12.182;2023-02-11T10:28:20;81443.00;;;12.00
12007;BMP180;6062;47.294;12.182;2023-02-11T10:31:37;81443.00;;;12.20
12007;BMP180;6062;47.294;12.182;2023-02-11T10:34:08;81443.00;;;12.40
12007;BMP180;6062;47.294;12.182;2023-02-11T10:36:39;81444.00;;;12.50
12007;BMP180;6062;47.294;12.182;2023-02-11T10:39:17;81449.00;;;12.50
12007;BMP180;6062;47.294;12.182;2023-02-11T10:41:49;81445.00;;;12.50
12007;BMP180;6062;47.294;12.182;2023-02-11T10:46:55;81440.00;;;12.50
12007;BMP180;6062;47.294;12.182;2023-02-11T10:49:44;81438.00;;;12.50
12007;BMP180;6062;47.294;12.182;2023-02-11T10:52:25;81437.00;;;12.40
12007;BMP180;6062;47.294;12.182;2023-02-11T10:57:36;81433.00;;;12.30
12007;BMP180;6062;47.294;12.182;2023-02-11T11:03:04;81432.00;;;12.40
12007;BMP180;6062;47.294;12.182;2023-02-11T11:05:34;81433.00;;;12.50
12007;BMP180;6062;47.294;12.182;2023-02-11T11:08:08;81442.00;;;12.50
12007;BMP180;6062;47.294;12.182;2023-02-11T11:13:33;81435.00;;;12.60
12007;BMP180;6062;47.294;12.182;2023-02-11T11:18:44;81435.00;;;12.70
12007;BMP180;6062;47.294;12.182;2023-02-11T11:21:41;81428.00;;;12.70
12007;BMP180;6062;47.294;12.182;2023-02-11T11:24:33;81426.00;;;12.80
12007;BMP180;6062;47.294;12.182;2023-02-11T11:27:04;81432.00;;;12.90
12007;BMP180;6062;47.294;12.182;2023-02-11T11:29:54;81440.00;;;13.10
12007;BMP180;6062;47.294;12.182;2023-02-11T11:32:29;81433.00;;;13.40
12007;BMP180;6062;47.294;12.182;2023-02-11T11:35:06;81428.00;;;13.80
12007;BMP180;6062;47.294;12.182;2023-02-11T11:37:36;81426.00;;;14.40
12007;BMP180;6062;47.294;12.182;2023-02-11T11:40:30;81430.00;;;15.10
12007;BMP180;6062;47.294;12.182;2023-02-11T11:45:39;81436.00;;;16.20
12007;BMP180;6062;47.294;12.182;2023-02-11T11:48:33;81438.00;;;16.50
12007;BMP180;6062;47.294;12.182;2023-02-11T11:51:07;81439.00;;;16.80
12007;BMP180;6062;47.294;12.182;2023-02-11T11:54:08;81442.00;;;16.90
12007;BMP180;6062;47.294;12.182;2023-02-11T11:56:48;81436.00;;;16.90
12007;BMP180;6062;47.294;12.182;2023-02-11T11:59:15;81439.00;;;16.80
12007;BMP180;6062;47.294;12.182;2023-02-11T12:05:08;81446.00;;;16.50
12007;BMP180;6062;47.294;12.182;2023-02-11T12:16:40;81452.00;;;15.60
12007;BMP180;6062;47.294;12.182;2023-02-11T12:19:21;81441.00;;;15.30
12007;BMP180;6062;47.294;12.182;2023-02-11T12:25:25;81434.00;;;14.70
12007;BMP180;6062;47.294;12.182;2023-02-11T12:31:13;81430.00;;;14.20
12007;BMP180;6062;47.294;12.182;2023-02-11T12:40:36;81425.00;;;13.50
12007;BMP180;6062;47.294;12.182;2023-02-11T12:43:19;81438.00;;;13.30
12007;BMP180;6062;47.294;12.182;2023-02-11T12:46:15;81442.00;;;13.20
12007;BMP180;6062;47.294;12.182;2023-02-11T12:48:56;81431.00;;;13.00
12007;BMP180;6062;47.294;12.182;2023-02-11T13:02:50;81437.00;;;12.60
12007;BMP180;6062;47.294;12.182;2023-02-11T13:05:34;81424.00;;;12.50
12007;BMP180;6062;47.294;12.182;2023-02-11T13:08:31;81421.00;;;12.50
12007;BMP180;6062;47.294;12.182;2023-02-11T13:11:11;81418.00;;;12.50
12007;BMP180;6062;47.294;12.182;2023-02-11T13:14:02;81418.00;;;12.40
12007;BMP180;6062;47.294;12.182;2023-02-11T13:16:40;81404.00;;;12.30
12007;BMP180;6062;47.294;12.182;2023-02-11T13:19:23;81410.00;;;12.20
12007;BMP180;6062;47.294;12.182;2023-02-11T13:22:43;81410.00;;;12.10
12007;BMP180;6062;47.294;12.182;2023-02-11T13:31:28;81401.00;;;11.90
12007;BMP180;6062;47.294;12.182;2023-02-11T13:33:54;81392.00;;;11.80
12007;BMP180;6062;47.294;12.182;2023-02-11T13:36:30;81403.00;;;11.80
12007;BMP180;6062;47.294;12.182;2023-02-11T13:39:02;81409.00;;;11.70
12007;BMP180;6062;47.294;12.182;2023-02-11T13:41:39;81408.00;;;11.70
12007;BMP180;6062;47.294;12.182;2023-02-11T13:47:05;81409.00;;;11.50
12007;BMP180;6062;47.294;12.182;2023-02-11T13:49:38;81402.00;;;11.40
12007;BMP180;6062;47.294;12.182;2023-02-11T13:52:34;81405.00;;;11.30
12007;BMP180;6062;47.294;12.182;2023-02-11T13:55:20;81402.00;;;11.20
12007;BMP180;6062;47.294;12.182;2023-02-11T14:14:25;81395.00;;;10.50
12007;BMP180;6062;47.294;12.182;2023-02-11T14:22:54;81397.00;;;10.10
12007;BMP180;6062;47.294;12.182;2023-02-11T14:25:21;81394.00;;;10.00
12007;BMP180;6062;47.294;12.182;2023-02-11T14:31:08;81383.00;;;9.90
12007;BMP180;6062;47.294;12.182;2023-02-11T14:33:52;81384.00;;;9.80
12007;BMP180;6062;47.294;12.182;2023-02-11T14:36:45;81396.00;;;9.80
12007;BMP180;6062;47.294;12.182;2023-02-11T14:42:22;81402.00;;;9.70
12007;BMP180;6062;47.294;12.182;2023-02-11T14:44:54;81410.00;;;9.60
12007;BMP180;6062;47.294;12.182;2023-02-11T14:47:31;81403.00;;;9.60
12007;BMP180;6062;47.294;12.182;2023-02-11T14:50:00;81403.00;;;9.60
12007;BMP180;6062;47.294;12.182;2023-02-11T14:52:32;81395.00;;;9.50
12007;BMP180;6062;47.294;12.182;2023-02-11T15:03:40;81397.00;;;9.20
12007;BMP180;6062;47.294;12.182;2023-02-11T15:06:16;81398.00;;;9.20
12007;BMP180;6062;47.294;12.182;2023-02-11T15:09:18;81405.00;;;9.20
12007;BMP180;6062;47.294;12.182;2023-02-11T15:11:46;81407.00;;;9.20
12007;BMP180;6062;47.294;12.182;2023-02-11T15:14:27;81406.00;;;9.10
12007;BMP180;6062;47.294;12.182;2023-02-11T15:16:58;81413.00;;;9.10
12007;BMP180;6062;47.294;12.182;2023-02-11T15:19:34;81407.00;;;9.00
12007;BMP180;6062;47.294;12.182;2023-02-11T15:22:06;81411.00;;;8.90
12007;BMP180;6062;47.294;12.182;2023-02-11T15:24:34;81412.00;;;8.90
12007;BMP180;6062;47.294;12.182;2023-02-11T15:27:17;81413.00;;;8.80
12007;BMP180;6062;47.294;12.182;2023-02-11T15:29:48;81416.00;;;8.80
12007;BMP180;6062;47.294;12.182;2023-02-11T15:32:21;81421.00;;;8.80
12007;BMP180;6062;47.294;12.182;2023-02-11T15:34:50;81419.00;;;8.70
12007;BMP180;6062;47.294;12.182;2023-02-11T15:37:24;81413.00;;;8.70
12007;BMP180;6062;47.294;12.182;2023-02-11T15:39:52;81419.00;;;8.60
12007;BMP180;6062;47.294;12.182;2023-02-11T15:42:29;81422.00;;;8.60
12007;BMP180;6062;47.294;12.182;2023-02-11T15:45:33;81414.00;;;8.60
12007;BMP180;6062;47.294;12.182;2023-02-11T15:48:15;81422.00;;;8.50
12007;BMP180;6062;47.294;12.182;2023-02-11T15:50:49;81423.00;;;8.50
12007;BMP180;6062;47.294;12.182;2023-02-11T15:53:35;81430.00;;;8.50
12007;BMP180;6062;47.294;12.182;2023-02-11T15:56:20;81426.00;;;8.50
12007;BMP180;6062;47.294;12.182;2023-02-11T15:58:52;81426.00;;;8.50
12007;BMP180;6062;47.294;12.182;2023-02-11T16:01:32;81423.00;;;8.50
12007;BMP180;6062;47.294;12.182;2023-02-11T16:03:59;81422.00;;;8.40
12007;BMP180;6062;47.294;12.182;2023-02-11T16:06:40;81430.00;;;8.30
12007;BMP180;6062;47.294;12.182;2023-02-11T16:17:25;81428.00;;;8.00
12007;BMP180;6062;47.294;12.182;2023-02-11T16:19:52;81435.00;;;7.80
12007;BMP180;6062;47.294;12.182;2023-02-11T16:22:29;81424.00;;;7.70
12007;BMP180;6062;47.294;12.182;2023-02-11T16:25:00;81428.00;;;7.60
12007;BMP180;6062;47.294;12.182;2023-02-11T16:27:40;81431.00;;;7.50
12007;BMP180;6062;47.294;12.182;2023-02-11T16:30:50;81437.00;;;7.40
12007;BMP180;6062;47.294;12.182;2023-02-11T16:33:16;81434.00;;;7.30
12007;BMP180;6062;47.294;12.182;2023-02-11T16:35:42;81430.00;;;7.20
12007;BMP180;6062;47.294;12.182;2023-02-11T16:38:12;81442.00;;;7.20
12007;BMP180;6062;47.294;12.182;2023-02-11T16:40:38;81445.00;;;7.10
12007;BMP180;6062;47.294;12.182;2023-02-11T16:43:04;81437.00;;;7.10
12007;BMP180;6062;47.294;12.182;2023-02-11T16:45:29;81447.00;;;7.00
12007;BMP180;6062;47.294;12.182;2023-02-11T16:47:56;81445.00;;;7.00
12007;BMP180;6062;47.294;12.182;2023-02-11T16:50:24;81457.00;;;6.90
12007;BMP180;6062;47.294;12.182;2023-02-11T16:52:50;81436.00;;;6.90
12007;BMP180;6062;47.294;12.182;2023-02-11T16:55:17;81440.00;;;6.90
12007;BMP180;6062;47.294;12.182;2023-02-11T16:57:43;81452.00;;;6.80
12007;BMP180;6062;47.294;12.182;2023-02-11T17:00:14;81459.00;;;6.80
12007;BMP180;6062;47.294;12.182;2023-02-11T17:02:40;81443.00;;;6.80
12007;BMP180;6062;47.294;12.182;2023-02-11T17:05:15;81448.00;;;6.70
12007;BMP180;6062;47.294;12.182;2023-02-11T17:07:41;81439.00;;;6.60
12007;BMP180;6062;47.294;12.182;2023-02-11T17:10:21;81455.00;;;6.60